createdAt,value
2023-02-26T00:01:40.533Z,101082.88
2023-02-26T00:06:56.869Z,101075.09
2023-02-26T00:12:01.626Z,101083.97
2023-02-26T00:17:32.450Z,101096.50
2023-02-26T00:22:34.887Z,101107.09
2023-02-26T00:27:37.382Z,101099.28
2023-02-26T00:32:40.269Z,101116.84
2023-02-26T00:38:04.901Z,101128.44
2023-02-26T00:43:09.709Z,101138.81
2023-02-26T00:48:19.927Z,101136.25
2023-02-26T00:53:34.580Z,101138.22
2023-02-26T00:58:36.606Z,101137.06
2023-02-26T01:03:40.242Z,101132.00
2023-02-26T01:09:04.632Z,101129.41
2023-02-26T01:14:06.954Z,101144.13
2023-02-26T01:19:21.064Z,101144.22
2023-02-26T01:24:24.046Z,101150.50
2023-02-26T01:29:27.301Z,101148.78
2023-02-26T01:34:38.273Z,101139.94
2023-02-26T01:39:47.394Z,101139.88
2023-02-26T01:45:11.116Z,101134.63
2023-02-26T01:50:22.094Z,101149.69
2023-02-26T01:55:26.654Z,101154.94
2023-02-26T02:00:31.323Z,101161.03
2023-02-26T02:05:43.594Z,101163.78
2023-02-26T02:10:47.792Z,101160.28
2023-02-26T02:16:20.363Z,101171.81
2023-02-26T02:21:52.928Z,101174.50
2023-02-26T02:27:24.436Z,101171.84
2023-02-26T02:32:59.499Z,101179.84
2023-02-26T02:38:11.716Z,101183.38
2023-02-26T02:43:19.891Z,101194.84
2023-02-26T02:48:47.616Z,101197.44
2023-02-26T02:54:05.587Z,101194.72
2023-02-26T02:59:13.487Z,101194.84
2023-02-26T03:04:17.561Z,101193.00
2023-02-26T03:09:19.618Z,101202.75
2023-02-26T03:14:21.938Z,101211.56
2023-02-26T03:19:55.221Z,101215.19
2023-02-26T03:25:13.501Z,101229.47
2023-02-26T03:30:20.755Z,101236.47
2023-02-26T03:35:35.098Z,101240.97
2023-02-26T03:40:44.559Z,101247.06
2023-02-26T03:45:50.433Z,101254.94
2023-02-26T03:50:57.593Z,101263.94
2023-02-26T03:56:16.365Z,101265.56
2023-02-26T04:01:23.361Z,101269.09
2023-02-26T04:06:26.597Z,101270.16
2023-02-26T04:11:30.091Z,101274.53
2023-02-26T04:16:32.242Z,101281.56
2023-02-26T04:21:34.285Z,101283.31
2023-02-26T04:26:36.058Z,101287.81
2023-02-26T04:31:38.363Z,101308.06
2023-02-26T04:36:40.190Z,101301.94
2023-02-26T04:41:42.209Z,101304.69
2023-02-26T04:46:44.561Z,101315.13
2023-02-26T04:51:46.501Z,101319.59
2023-02-26T04:56:48.315Z,101316.06
2023-02-26T05:01:57.526Z,101326.75
2023-02-26T05:06:59.359Z,101321.25
2023-02-26T05:12:01.404Z,101329.41
2023-02-26T05:17:03.404Z,101332.88
2023-02-26T05:22:05.584Z,101340.81
2023-02-26T05:27:07.409Z,101347.91
2023-02-26T05:32:09.680Z,101347.09
2023-02-26T05:37:11.790Z,101367.47
2023-02-26T05:42:13.799Z,101376.28
2023-02-26T05:47:15.696Z,101377.13
2023-02-26T05:52:18.134Z,101375.38
2023-02-26T05:57:20.109Z,101387.72
2023-02-26T06:02:22.198Z,101393.25
2023-02-26T06:07:24.792Z,101402.88
2023-02-26T06:12:26.694Z,101410.00
2023-02-26T06:17:28.528Z,101412.53
2023-02-26T06:22:30.916Z,101421.34
2023-02-26T06:27:32.999Z,101435.56
2023-02-26T06:32:35.072Z,101444.41
2023-02-26T06:37:37.405Z,101453.22
2023-02-26T06:42:39.446Z,101469.16
2023-02-26T06:47:41.570Z,101477.91
2023-02-26T06:52:43.665Z,101481.50
2023-02-26T06:57:45.680Z,101480.66
2023-02-26T07:02:47.678Z,101492.19
2023-02-26T07:07:49.572Z,101500.16
2023-02-26T07:12:52.127Z,101497.50
2023-02-26T07:17:54.232Z,101510.75
2023-02-26T07:22:56.276Z,101517.94
2023-02-26T07:28:00.187Z,101524.13
2023-02-26T07:33:02.218Z,101538.22
2023-02-26T07:38:04.232Z,101538.22
2023-02-26T07:43:06.169Z,101549.72
2023-02-26T07:48:08.584Z,101561.03
2023-02-26T07:53:10.869Z,101572.59
2023-02-26T07:58:12.818Z,101580.56
2023-02-26T08:03:15.744Z,101594.75
2023-02-26T08:08:17.631Z,101592.97
2023-02-26T08:13:21.283Z,101611.63
2023-02-26T08:18:23.310Z,101601.91
2023-02-26T08:23:27.306Z,101606.28
2023-02-26T08:28:29.465Z,101608.81
2023-02-26T08:33:32.213Z,101623.97
2023-02-26T08:38:34.380Z,101623.66
2023-02-26T08:43:37.066Z,101628.91
2023-02-26T08:48:38.829Z,101637.75
2023-02-26T08:53:40.839Z,101636.75
2023-02-26T08:58:42.890Z,101650.81
2023-02-26T09:03:44.925Z,101663.25
2023-02-26T09:08:47.729Z,101668.50
2023-02-26T09:13:50.041Z,101675.75
2023-02-26T09:18:53.755Z,101680.94
2023-02-26T09:23:55.956Z,101685.28
2023-02-26T09:28:57.962Z,101690.50
2023-02-26T09:34:00.035Z,101711.84
2023-02-26T09:39:02.162Z,101707.41
2023-02-26T09:44:13.668Z,101710.19
2023-02-26T09:49:34.370Z,101729.50
2023-02-26T09:54:44.714Z,101731.41
2023-02-26T09:59:46.503Z,101739.81
2023-02-26T10:05:11.104Z,101742.88
2023-02-26T10:10:33.405Z,101738.25
2023-02-26T10:15:42.775Z,101740.13
2023-02-26T10:20:47.536Z,101754.28
2023-02-26T10:26:12.843Z,101763.03
2023-02-26T10:31:38.972Z,101765.59
2023-02-26T10:36:40.959Z,101767.13
2023-02-26T10:41:42.644Z,101763.03
2023-02-26T10:46:59.523Z,101761.09
2023-02-26T10:52:11.634Z,101783.91
2023-02-26T10:57:27.377Z,101786.41
2023-02-26T11:02:44.596Z,101778.28
2023-02-26T11:07:51.178Z,101780.59
2023-02-26T11:12:54.103Z,101783.31
2023-02-26T11:17:58.854Z,101786.34
2023-02-26T11:23:03.933Z,101783.16
2023-02-26T11:28:18.011Z,101785.44
2023-02-26T11:33:29.083Z,101781.09
2023-02-26T11:38:32.150Z,101781.06
2023-02-26T11:43:52.227Z,101775.66
2023-02-26T11:48:58.272Z,101768.50
2023-02-26T11:54:01.859Z,101774.47
2023-02-26T11:59:17.869Z,101767.66
2023-02-26T12:04:23.265Z,101771.19
2023-02-26T12:09:26.694Z,101767.22
2023-02-26T12:14:50.853Z,101767.56
2023-02-26T12:20:04.928Z,101781.44
2023-02-26T12:25:22.826Z,101787.19
2023-02-26T12:30:43.515Z,101777.88
2023-02-26T12:35:48.754Z,101768.50
2023-02-26T12:41:18.900Z,101772.41
2023-02-26T12:46:34.249Z,101761.09
2023-02-26T12:52:07.502Z,101762.94
2023-02-26T12:57:21.485Z,101761.53
2023-02-26T13:03:00.849Z,101764.63
2023-02-26T13:08:18.108Z,101775.16
2023-02-26T13:13:42.636Z,101774.31
2023-02-26T13:19:11.181Z,101767.00
2023-02-26T13:24:23.034Z,101775.94
2023-02-26T13:29:33.056Z,101765.56
2023-02-26T13:34:59.019Z,101765.31
2023-02-26T13:40:22.307Z,101768.09
2023-02-26T13:45:32.375Z,101774.91
2023-02-26T13:50:52.392Z,101780.34
2023-02-26T13:55:55.987Z,101765.34
2023-02-26T14:01:16.926Z,101764.47
2023-02-26T14:06:37.310Z,101755.78
2023-02-26T14:11:58.647Z,101756.34
2023-02-26T14:17:01.607Z,101757.19
2023-02-26T14:22:19.953Z,101767.41
2023-02-26T14:27:31.863Z,101764.66
2023-02-26T14:32:50.289Z,101769.19
2023-02-26T14:38:00.094Z,101767.44
2023-02-26T14:43:05.458Z,101782.28
2023-02-26T14:48:19.266Z,101771.63
2023-02-26T14:53:39.752Z,101782.19
2023-02-26T14:59:13.558Z,101772.09
2023-02-26T15:04:49.189Z,101777.88
2023-02-26T15:10:14.312Z,101772.56
2023-02-26T15:15:40.791Z,101777.88
2023-02-26T15:21:04.014Z,101777.94
2023-02-26T15:26:09.008Z,101773.50
2023-02-26T15:31:13.892Z,101784.13
2023-02-26T15:36:22.197Z,101782.88
2023-02-26T15:41:27.427Z,101785.41
2023-02-26T15:46:35.452Z,101799.34
2023-02-26T15:51:38.323Z,101797.53
2023-02-26T15:56:41.594Z,101800.16
2023-02-26T16:01:44.171Z,101807.22
2023-02-26T16:06:49.065Z,101813.34
2023-02-26T16:11:56.181Z,101813.28
2023-02-26T16:16:59.304Z,101816.06
2023-02-26T16:22:06.041Z,101816.84
2023-02-26T16:27:13.436Z,101823.03
2023-02-26T16:32:15.894Z,101829.44
2023-02-26T16:37:23.506Z,101828.41
2023-02-26T16:42:46.207Z,101832.88
2023-02-26T16:47:55.452Z,101839.88
2023-02-26T16:53:06.780Z,101835.56
2023-02-26T16:58:14.852Z,101843.66
2023-02-26T17:03:22.557Z,101848.06
2023-02-26T17:08:28.931Z,101841.56
2023-02-26T17:13:33.296Z,101842.81
2023-02-26T17:18:35.105Z,101857.06
2023-02-26T17:23:38.913Z,101860.88
2023-02-26T17:28:43.045Z,101861.34
2023-02-26T17:33:45.332Z,101872.06
2023-02-26T17:38:48.570Z,101875.44
2023-02-26T17:43:50.543Z,101881.78
2023-02-26T17:48:52.480Z,101877.56
2023-02-26T17:53:54.864Z,101879.19
2023-02-26T17:58:58.454Z,101878.13
2023-02-26T18:04:01.933Z,101889.75
2023-02-26T18:09:06.077Z,101892.41
2023-02-26T18:14:08.641Z,101902.03
2023-02-26T18:19:14.111Z,101895.69
2023-02-26T18:24:16.707Z,101899.25
2023-02-26T18:29:18.687Z,101893.91
2023-02-26T18:34:20.664Z,101891.31
2023-02-26T18:39:24.482Z,101901.94
2023-02-26T18:44:28.842Z,101899.38
2023-02-26T18:49:30.780Z,101900.28
2023-02-26T18:54:32.715Z,101907.13
2023-02-26T18:59:35.076Z,101904.47
2023-02-26T19:04:36.996Z,101927.09
2023-02-26T19:09:38.859Z,101929.97
2023-02-26T19:14:44.329Z,101930.56
2023-02-26T19:19:47.796Z,101937.56
2023-02-26T19:25:00.842Z,101938.97
2023-02-26T19:30:03.823Z,101935.97
2023-02-26T19:35:07.468Z,101943.19
2023-02-26T19:40:11.555Z,101951.91
2023-02-26T19:45:15.490Z,101957.06
2023-02-26T19:50:19.609Z,101963.41
2023-02-26T19:55:21.455Z,101965.19
2023-02-26T20:00:23.780Z,101968.69
2023-02-26T20:05:25.983Z,101965.97
2023-02-26T20:10:31.919Z,101977.59
2023-02-26T20:15:33.900Z,101978.63
2023-02-26T20:20:35.989Z,101988.28
2023-02-26T20:25:38.730Z,101999.81
2023-02-26T20:30:40.760Z,102001.31
2023-02-26T20:35:46.508Z,102005.03
2023-02-26T20:40:48.702Z,101998.56
2023-02-26T20:45:51.803Z,102015.47
2023-02-26T20:50:59.521Z,102021.53
2023-02-26T20:56:01.702Z,102020.75
2023-02-26T21:01:03.612Z,102022.59
2023-02-26T21:06:05.846Z,102027.00
2023-02-26T21:11:10.368Z,102032.50
2023-02-26T21:16:13.063Z,102031.66
2023-02-26T21:21:15.015Z,102027.19
2023-02-26T21:26:17.217Z,102033.56
2023-02-26T21:31:22.197Z,102028.25
2023-02-26T21:36:24.320Z,102034.41
2023-02-26T21:41:26.360Z,102028.25
2023-02-26T21:46:28.455Z,102041.41
2023-02-26T21:51:30.475Z,102029.00
2023-02-26T21:56:32.430Z,102038.91
2023-02-26T22:01:34.533Z,102035.25
2023-02-26T22:06:36.408Z,102034.38
2023-02-26T22:11:38.633Z,102037.56
2023-02-26T22:16:41.049Z,102040.16
2023-02-26T22:21:42.946Z,102035.16
2023-02-26T22:26:47.196Z,102041.81
2023-02-26T22:31:49.263Z,102036.59
2023-02-26T22:36:52.602Z,102038.47
2023-02-26T22:41:54.763Z,102029.66
2023-02-26T22:46:56.744Z,102029.38
2023-02-26T22:51:58.826Z,102042.69
2023-02-26T22:57:00.914Z,102049.75
2023-02-26T23:02:02.982Z,102041.97
2023-02-26T23:07:04.896Z,102045.28
2023-02-26T23:12:06.998Z,102049.13
2023-02-26T23:17:11.397Z,102052.53
2023-02-26T23:22:13.583Z,102052.63
2023-02-26T23:27:16.243Z,102050.50
2023-02-26T23:32:18.290Z,102059.53
2023-02-26T23:37:20.308Z,102055.13
2023-02-26T23:42:22.403Z,102053.13
2023-02-26T23:47:24.481Z,102049.34
2023-02-26T23:52:26.485Z,102053.94
2023-02-26T23:57:28.827Z,102060.41
